Radisson, Canada
Current Conditions -  °F | °C
As of 9:00 AM on Sunday 25 Jan 2015 (Local Time) from CYGL Reporting Station
Few Clouds Few Clouds  
Wind Chill: -38°   Ceiling: Unl
Heat Index: -18°   Visibility: 15mi
Dew Point: -24°   Wind: 9mph
Humidity: 76%   Direction: 300°WNW
Pressure: 29.76"   Gusts: NA
Location:  53.78°N, 77.62°W
Report Text: CYGL 251400Z 30008KT 15SM FEW040 FEW240 M28/M31 A2976 RMK SC1CI1 SLP104
Loading
Personal Weather Stations






























Interactive Weather Map New forecast layout! Learn more

10-Day Weather Forecast

Advertisements
Track Severe Weather on mobile